PGT96T EDDK-LTFJ
Flight info
| Callsign | PGT96T |
|---|---|
| Flight time | 2h 41m |
| Altitude | 37000 |
| Route | KUMIK8F KUMIK L603 TESGA DCT ESATI DCT DETEV DCT DINKU DCT BESNI DCT GOMIG DCT OBUTI DCT TUVAR DCT ETIDA DCT BUFRA DCT ADORU UM19 IBODU |
| Aircraft | B738/M-SDE2E3FGHIRWXY/LB1 |
Departure
| Time | 2026-04-25 05:10 |
|---|---|
| Airport | Cologne Bonn Airport (EDDK) |
Arrival
| Time | 2026-04-25 07:51 |
|---|---|
| Airport | Istanbul Sabiha Gökçen International Airport (LTFJ) |
| Time | Latitude | Longitude | Altitude | Speed | Heading |
|---|---|---|---|---|---|
| 2026-04-25 04:51 | 50.88173 | 7.11949 | 231 ft | 0 kts | 216° |
| 2026-04-25 04:54 | 50.88185 | 7.11963 | 233 ft | 4 kts | 219° |
| 2026-04-25 04:54 | 50.88203 | 7.11986 | 235 ft | 3 kts | 215° |
| 2026-04-25 04:55 | 50.88226 | 7.11999 | 233 ft | 4 kts | 171° |
| 2026-04-25 04:55 | 50.88250 | 7.11984 | 234 ft | 4 kts | 140° |
| 2026-04-25 04:55 | 50.88261 | 7.11967 | 233 ft | 0 kts | 126° |
| 2026-04-25 05:05 | 50.88258 | 7.11973 | 231 ft | 2 kts | 126° |
| 2026-04-25 05:05 | 50.88240 | 7.12012 | 232 ft | 7 kts | 127° |
| 2026-04-25 05:05 | 50.88206 | 7.12085 | 231 ft | 9 kts | 125° |
| 2026-04-25 05:05 | 50.88171 | 7.12164 | 231 ft | 9 kts | 125° |
| 2026-04-25 05:06 | 50.88137 | 7.12240 | 232 ft | 8 kts | 125° |
| 2026-04-25 05:06 | 50.88104 | 7.12313 | 231 ft | 8 kts | 126° |
| 2026-04-25 05:06 | 50.88072 | 7.12384 | 231 ft | 8 kts | 124° |
| 2026-04-25 05:06 | 50.88044 | 7.12453 | 231 ft | 7 kts | 119° |
| 2026-04-25 05:07 | 50.88016 | 7.12532 | 234 ft | 9 kts | 120° |
| 2026-04-25 05:07 | 50.87988 | 7.12617 | 231 ft | 8 kts | 110° |
| 2026-04-25 05:07 | 50.87985 | 7.12687 | 232 ft | 3 kts | 83° |
| 2026-04-25 05:07 | 50.87993 | 7.12735 | 237 ft | 9 kts | 73° |
| 2026-04-25 05:08 | 50.88008 | 7.12840 | 237 ft | 11 kts | 83° |
| 2026-04-25 05:08 | 50.88003 | 7.12961 | 238 ft | 9 kts | 115° |
| 2026-04-25 05:08 | 50.87984 | 7.12999 | 238 ft | 0 kts | 134° |
| 2026-04-25 05:09 | 50.87937 | 7.13069 | 238 ft | 32 kts | 137° |
| 2026-04-25 05:09 | 50.87583 | 7.13578 | 238 ft | 103 kts | 137° |
| 2026-04-25 05:09 | 50.86902 | 7.14568 | 261 ft | 160 kts | 137° |
| 2026-04-25 05:09 | 50.85996 | 7.15848 | 677 ft | 177 kts | 139° |
| 2026-04-25 05:10 | 50.85064 | 7.17109 | 1552 ft | 175 kts | 140° |
| 2026-04-25 05:10 | 50.84129 | 7.18358 | 2402 ft | 175 kts | 139° |
| 2026-04-25 05:10 | 50.83179 | 7.19623 | 3106 ft | 184 kts | 138° |
| 2026-04-25 05:10 | 50.82196 | 7.20981 | 3841 ft | 188 kts | 136° |
| 2026-04-25 05:11 | 50.81261 | 7.22345 | 4788 ft | 179 kts | 135° |
| 2026-04-25 05:11 | 50.80341 | 7.23727 | 5456 ft | 186 kts | 135° |
| 2026-04-25 05:11 | 50.79425 | 7.25239 | 6072 ft | 196 kts | 123° |
| 2026-04-25 05:12 | 50.78830 | 7.29703 | 6936 ft | 220 kts | 89° |
| 2026-04-25 05:12 | 50.78791 | 7.32099 | 7623 ft | 214 kts | 89° |
| 2026-04-25 05:12 | 50.78753 | 7.34529 | 7951 ft | 233 kts | 90° |
| 2026-04-25 05:12 | 50.78714 | 7.37204 | 8131 ft | 255 kts | 90° |
| 2026-04-25 05:13 | 50.78670 | 7.40112 | 8352 ft | 276 kts | 90° |
| 2026-04-25 05:13 | 50.78622 | 7.43249 | 8699 ft | 293 kts | 90° |
| 2026-04-25 05:13 | 50.78569 | 7.46506 | 9475 ft | 298 kts | 90° |
| 2026-04-25 05:13 | 50.78516 | 7.49785 | 10339 ft | 300 kts | 90° |
| 2026-04-25 05:14 | 50.78460 | 7.53164 | 10757 ft | 318 kts | 90° |
| 2026-04-25 05:14 | 50.78400 | 7.56797 | 10941 ft | 343 kts | 90° |
| 2026-04-25 05:14 | 50.78398 | 7.60692 | 11110 ft | 366 kts | 84° |
| 2026-04-25 05:15 | 50.79274 | 7.68922 | 11999 ft | 388 kts | 77° |
| 2026-04-25 05:15 | 50.79816 | 7.73112 | 12709 ft | 391 kts | 77° |
| 2026-04-25 05:15 | 50.80344 | 7.77347 | 13420 ft | 395 kts | 77° |
| 2026-04-25 05:15 | 50.80852 | 7.81638 | 14064 ft | 399 kts | 78° |
| 2026-04-25 05:16 | 50.81348 | 7.85985 | 14656 ft | 404 kts | 78° |
| 2026-04-25 05:16 | 50.81838 | 7.90378 | 15272 ft | 408 kts | 78° |
| 2026-04-25 05:16 | 50.82329 | 7.94813 | 15881 ft | 411 kts | 78° |
| 2026-04-25 05:16 | 50.82822 | 7.99289 | 16486 ft | 415 kts | 78° |
| 2026-04-25 05:17 | 50.83254 | 8.03842 | 17014 ft | 422 kts | 86° |
| 2026-04-25 05:17 | 50.82881 | 8.08457 | 17538 ft | 428 kts | 107° |
| 2026-04-25 05:17 | 50.81587 | 8.12691 | 18165 ft | 430 kts | 124° |
| 2026-04-25 05:17 | 50.79899 | 8.16604 | 18710 ft | 433 kts | 126° |
| 2026-04-25 05:18 | 50.78168 | 8.20537 | 19159 ft | 438 kts | 126° |
| 2026-04-25 05:18 | 50.76432 | 8.24519 | 19635 ft | 442 kts | 126° |
| 2026-04-25 05:18 | 50.74703 | 8.28551 | 20124 ft | 445 kts | 126° |
| 2026-04-25 05:18 | 50.72971 | 8.32628 | 20603 ft | 449 kts | 126° |
| 2026-04-25 05:19 | 50.71192 | 8.36698 | 21070 ft | 451 kts | 130° |
| 2026-04-25 05:19 | 50.69068 | 8.40330 | 21511 ft | 451 kts | 141° |
| 2026-04-25 05:19 | 50.66596 | 8.43364 | 21965 ft | 451 kts | 150° |
| 2026-04-25 05:19 | 50.63857 | 8.45782 | 22321 ft | 453 kts | 156° |
| 2026-04-25 05:20 | 50.61055 | 8.48063 | 22812 ft | 454 kts | 157° |
| 2026-04-25 05:20 | 50.58248 | 8.50359 | 23323 ft | 456 kts | 157° |
| 2026-04-25 05:20 | 50.55433 | 8.52694 | 23732 ft | 459 kts | 156° |
| 2026-04-25 05:20 | 50.53562 | 8.54263 | 23985 ft | 460 kts | 156° |
| 2026-04-25 05:21 | 50.50736 | 8.56646 | 24353 ft | 462 kts | 156° |
| 2026-04-25 05:21 | 50.47899 | 8.59039 | 24715 ft | 464 kts | 156° |
| 2026-04-25 05:21 | 50.45080 | 8.61534 | 25053 ft | 469 kts | 152° |
| 2026-04-25 05:21 | 50.42463 | 8.64667 | 25377 ft | 478 kts | 141° |
| 2026-04-25 05:22 | 50.40061 | 8.68290 | 25733 ft | 481 kts | 139° |
| 2026-04-25 05:22 | 50.37677 | 8.71978 | 26070 ft | 482 kts | 139° |
| 2026-04-25 05:22 | 50.35285 | 8.75675 | 26385 ft | 485 kts | 139° |
| 2026-04-25 05:22 | 50.32870 | 8.79374 | 26675 ft | 487 kts | 140° |
| 2026-04-25 05:23 | 50.30431 | 8.83070 | 26977 ft | 488 kts | 140° |
| 2026-04-25 05:23 | 50.27982 | 8.86753 | 27383 ft | 488 kts | 140° |
| 2026-04-25 05:23 | 50.25529 | 8.90423 | 27693 ft | 489 kts | 140° |
| 2026-04-25 05:23 | 50.23061 | 8.94105 | 27946 ft | 492 kts | 140° |
| 2026-04-25 05:24 | 50.20577 | 8.97804 | 28216 ft | 494 kts | 140° |
| 2026-04-25 05:24 | 50.18092 | 9.01504 | 28608 ft | 493 kts | 140° |
| 2026-04-25 05:24 | 50.15616 | 9.05188 | 29077 ft | 490 kts | 140° |
| 2026-04-25 05:24 | 50.13154 | 9.08846 | 29554 ft | 488 kts | 140° |
| 2026-04-25 05:25 | 50.10696 | 9.12493 | 29965 ft | 487 kts | 140° |
| 2026-04-25 05:25 | 50.08240 | 9.16130 | 30331 ft | 487 kts | 140° |
| 2026-04-25 05:25 | 50.05783 | 9.19763 | 30589 ft | 488 kts | 140° |
| 2026-04-25 05:25 | 50.03322 | 9.23401 | 30919 ft | 487 kts | 140° |
| 2026-04-25 05:26 | 50.00876 | 9.27020 | 31337 ft | 484 kts | 140° |
| 2026-04-25 05:26 | 49.98441 | 9.30620 | 31648 ft | 484 kts | 140° |
| 2026-04-25 05:26 | 49.95997 | 9.34226 | 31895 ft | 485 kts | 140° |
| 2026-04-25 05:26 | 49.93551 | 9.37831 | 32185 ft | 485 kts | 140° |
| 2026-04-25 05:27 | 49.91107 | 9.41427 | 32520 ft | 484 kts | 140° |
| 2026-04-25 05:27 | 49.88668 | 9.45011 | 32855 ft | 483 kts | 140° |
| 2026-04-25 05:27 | 49.86232 | 9.48587 | 33134 ft | 482 kts | 140° |
| 2026-04-25 05:27 | 49.83792 | 9.52161 | 33412 ft | 483 kts | 140° |
| 2026-04-25 05:28 | 49.81351 | 9.55729 | 33708 ft | 482 kts | 140° |
| 2026-04-25 05:28 | 49.78914 | 9.59273 | 34041 ft | 480 kts | 140° |
| 2026-04-25 05:28 | 49.76492 | 9.62785 | 34466 ft | 475 kts | 140° |
| 2026-04-25 05:28 | 49.74084 | 9.66270 | 34747 ft | 474 kts | 140° |
| 2026-04-25 05:29 | 49.71674 | 9.69752 | 34910 ft | 476 kts | 140° |
| 2026-04-25 05:29 | 49.69251 | 9.73248 | 35088 ft | 477 kts | 140° |
| 2026-04-25 05:29 | 49.66830 | 9.76739 | 35342 ft | 475 kts | 140° |
| 2026-04-25 05:29 | 49.64418 | 9.80214 | 35622 ft | 474 kts | 140° |
| 2026-04-25 05:30 | 49.62010 | 9.83680 | 35863 ft | 473 kts | 140° |
| 2026-04-25 05:30 | 49.59603 | 9.87138 | 36074 ft | 473 kts | 140° |
| 2026-04-25 05:30 | 49.57193 | 9.90596 | 36280 ft | 473 kts | 140° |
| 2026-04-25 05:30 | 49.54784 | 9.94048 | 36497 ft | 473 kts | 140° |
| 2026-04-25 05:31 | 49.52375 | 9.97495 | 36663 ft | 473 kts | 140° |
| 2026-04-25 05:31 | 49.49966 | 10.00937 | 36913 ft | 472 kts | 140° |
| 2026-04-25 05:31 | 49.47564 | 10.04364 | 37132 ft | 471 kts | 140° |
| 2026-04-25 05:32 | 49.42726 | 10.11249 | 37139 ft | 474 kts | 140° |
| 2026-04-25 05:32 | 49.37899 | 10.18104 | 37124 ft | 471 kts | 140° |
| 2026-04-25 05:33 | 49.33101 | 10.24900 | 37134 ft | 468 kts | 140° |
| 2026-04-25 05:33 | 49.28321 | 10.31649 | 37111 ft | 466 kts | 141° |
| 2026-04-25 05:34 | 49.23555 | 10.38362 | 37138 ft | 465 kts | 141° |
| 2026-04-25 05:34 | 49.18871 | 10.45218 | 37152 ft | 467 kts | 139° |
| 2026-04-25 05:35 | 49.14229 | 10.52190 | 37159 ft | 469 kts | 139° |
| 2026-04-25 05:35 | 49.09560 | 10.59163 | 37154 ft | 470 kts | 139° |
| 2026-04-25 05:36 | 49.04857 | 10.66132 | 37149 ft | 472 kts | 139° |
| 2026-04-25 05:36 | 49.00127 | 10.73107 | 37144 ft | 474 kts | 139° |
| 2026-04-25 05:37 | 48.95375 | 10.80095 | 37143 ft | 476 kts | 139° |
| 2026-04-25 05:37 | 48.90609 | 10.87087 | 37138 ft | 476 kts | 139° |
| 2026-04-25 05:38 | 48.85836 | 10.94071 | 37138 ft | 477 kts | 140° |
| 2026-04-25 05:38 | 48.81057 | 11.01043 | 37131 ft | 477 kts | 140° |
| 2026-04-25 05:39 | 48.76276 | 11.08000 | 37111 ft | 476 kts | 140° |
| 2026-04-25 05:39 | 48.71494 | 11.14939 | 37125 ft | 476 kts | 140° |
| 2026-04-25 05:40 | 48.66749 | 11.21809 | 37130 ft | 475 kts | 139° |
| 2026-04-25 05:40 | 48.62694 | 11.29726 | 37122 ft | 481 kts | 120° |
| 2026-04-25 05:41 | 48.59655 | 11.38740 | 37123 ft | 481 kts | 118° |
| 2026-04-25 05:41 | 48.56647 | 11.47769 | 37131 ft | 481 kts | 119° |
| 2026-04-25 05:42 | 48.53591 | 11.56754 | 37129 ft | 481 kts | 120° |
| 2026-04-25 05:42 | 48.50502 | 11.65711 | 37129 ft | 481 kts | 120° |
| 2026-04-25 05:43 | 48.47399 | 11.74660 | 37117 ft | 482 kts | 120° |
| 2026-04-25 05:43 | 48.44289 | 11.83605 | 37130 ft | 482 kts | 120° |
| 2026-04-25 05:44 | 48.41173 | 11.92542 | 37129 ft | 482 kts | 120° |
| 2026-04-25 05:44 | 48.38048 | 12.01474 | 37131 ft | 483 kts | 120° |
| 2026-04-25 05:45 | 48.34914 | 12.10404 | 37124 ft | 483 kts | 120° |
| 2026-04-25 05:45 | 48.31767 | 12.19336 | 37119 ft | 484 kts | 120° |
| 2026-04-25 05:46 | 48.28612 | 12.28264 | 37122 ft | 484 kts | 120° |
| 2026-04-25 05:46 | 48.25446 | 12.37191 | 37119 ft | 485 kts | 120° |
| 2026-04-25 05:47 | 48.22269 | 12.46118 | 37122 ft | 485 kts | 120° |
| 2026-04-25 05:47 | 48.19086 | 12.55033 | 37119 ft | 485 kts | 120° |
| 2026-04-25 05:48 | 48.15894 | 12.63949 | 37113 ft | 486 kts | 120° |
| 2026-04-25 05:48 | 48.12568 | 12.72739 | 37115 ft | 484 kts | 126° |
| 2026-04-25 05:49 | 48.08758 | 12.81008 | 37122 ft | 483 kts | 128° |
| 2026-04-25 05:49 | 48.04857 | 12.89178 | 37116 ft | 483 kts | 128° |
| 2026-04-25 05:50 | 48.00984 | 12.97382 | 37120 ft | 483 kts | 128° |
| 2026-04-25 05:50 | 47.97136 | 13.05612 | 37116 ft | 483 kts | 127° |
| 2026-04-25 05:51 | 47.93293 | 13.13840 | 37117 ft | 483 kts | 127° |
| 2026-04-25 05:51 | 47.89444 | 13.22057 | 37120 ft | 483 kts | 128° |
| 2026-04-25 05:52 | 47.85586 | 13.30264 | 37112 ft | 484 kts | 127° |
| 2026-04-25 05:52 | 47.81722 | 13.38455 | 37111 ft | 484 kts | 127° |
| 2026-04-25 05:53 | 47.77850 | 13.46638 | 37120 ft | 484 kts | 128° |
| 2026-04-25 05:53 | 47.73998 | 13.54756 | 37116 ft | 484 kts | 128° |
| 2026-04-25 05:54 | 47.70115 | 13.62912 | 37109 ft | 484 kts | 127° |
| 2026-04-25 05:54 | 47.64278 | 13.75128 | 37110 ft | 484 kts | 128° |
| 2026-04-25 05:55 | 47.60378 | 13.83261 | 37120 ft | 484 kts | 127° |
| 2026-04-25 05:55 | 47.56474 | 13.91379 | 37109 ft | 484 kts | 127° |
| 2026-04-25 05:56 | 47.52565 | 13.99486 | 37112 ft | 484 kts | 127° |
| 2026-04-25 05:56 | 47.48652 | 14.07573 | 37124 ft | 483 kts | 127° |
| 2026-04-25 05:57 | 47.44741 | 14.15634 | 37128 ft | 482 kts | 127° |
| 2026-04-25 05:57 | 47.40825 | 14.23679 | 37130 ft | 482 kts | 127° |
| 2026-04-25 05:58 | 47.36905 | 14.31712 | 37116 ft | 483 kts | 127° |
| 2026-04-25 05:58 | 47.32975 | 14.39740 | 37118 ft | 483 kts | 127° |
| 2026-04-25 05:59 | 47.29041 | 14.47753 | 37119 ft | 482 kts | 127° |
| 2026-04-25 05:59 | 47.25103 | 14.55752 | 37117 ft | 483 kts | 127° |
| 2026-04-25 06:00 | 47.21154 | 14.63747 | 37124 ft | 483 kts | 127° |
| 2026-04-25 06:00 | 47.17198 | 14.71738 | 37130 ft | 483 kts | 127° |
| 2026-04-25 06:01 | 47.13236 | 14.79716 | 37136 ft | 484 kts | 127° |
| 2026-04-25 06:01 | 47.09261 | 14.87698 | 37086 ft | 484 kts | 127° |
| 2026-04-25 06:02 | 47.05276 | 14.95675 | 37070 ft | 485 kts | 127° |
| 2026-04-25 06:02 | 47.01283 | 15.03645 | 37072 ft | 485 kts | 127° |
| 2026-04-25 06:03 | 46.97292 | 15.11589 | 37086 ft | 484 kts | 127° |
| 2026-04-25 06:03 | 46.93294 | 15.19524 | 37085 ft | 484 kts | 127° |
| 2026-04-25 06:04 | 46.89294 | 15.27441 | 37093 ft | 483 kts | 127° |
| 2026-04-25 06:04 | 46.85321 | 15.35282 | 37092 ft | 483 kts | 127° |
| 2026-04-25 06:05 | 46.81319 | 15.43158 | 37093 ft | 483 kts | 127° |
| 2026-04-25 06:05 | 46.77311 | 15.51023 | 37082 ft | 483 kts | 127° |
| 2026-04-25 06:06 | 46.73301 | 15.58870 | 37077 ft | 482 kts | 127° |
| 2026-04-25 06:06 | 46.69940 | 15.65429 | 37089 ft | 482 kts | 127° |
| 2026-04-25 06:07 | 46.65925 | 15.73244 | 37089 ft | 482 kts | 127° |
| 2026-04-25 06:07 | 46.61938 | 15.80984 | 37094 ft | 481 kts | 127° |
| 2026-04-25 06:08 | 46.57921 | 15.88762 | 37094 ft | 481 kts | 127° |
| 2026-04-25 06:08 | 46.53900 | 15.96523 | 37076 ft | 481 kts | 127° |
| 2026-04-25 06:09 | 46.49876 | 16.04272 | 37077 ft | 480 kts | 127° |
| 2026-04-25 06:09 | 46.45845 | 16.12011 | 37079 ft | 480 kts | 127° |
| 2026-04-25 06:10 | 46.41814 | 16.19732 | 37080 ft | 480 kts | 127° |
| 2026-04-25 06:10 | 46.37786 | 16.27440 | 37075 ft | 480 kts | 126° |
| 2026-04-25 06:11 | 46.34158 | 16.35529 | 37088 ft | 479 kts | 121° |
| 2026-04-25 06:11 | 46.30729 | 16.43791 | 37077 ft | 479 kts | 120° |
| 2026-04-25 06:12 | 46.27282 | 16.52030 | 37081 ft | 479 kts | 121° |
| 2026-04-25 06:12 | 46.23795 | 16.60219 | 37087 ft | 479 kts | 121° |
| 2026-04-25 06:13 | 46.20283 | 16.68386 | 37082 ft | 479 kts | 121° |
| 2026-04-25 06:14 | 46.15003 | 16.80615 | 37075 ft | 479 kts | 121° |
| 2026-04-25 06:14 | 46.11479 | 16.88752 | 37080 ft | 478 kts | 121° |
| 2026-04-25 06:15 | 46.07952 | 16.96872 | 37083 ft | 478 kts | 121° |
| 2026-04-25 06:15 | 46.04417 | 17.04988 | 37072 ft | 478 kts | 121° |
| 2026-04-25 06:16 | 46.00882 | 17.13083 | 37069 ft | 478 kts | 121° |
| 2026-04-25 06:16 | 45.97342 | 17.21164 | 37075 ft | 477 kts | 121° |
| 2026-04-25 06:17 | 45.93797 | 17.29232 | 37075 ft | 477 kts | 121° |
| 2026-04-25 06:17 | 45.90248 | 17.37288 | 37068 ft | 477 kts | 121° |
| 2026-04-25 06:18 | 45.86691 | 17.45339 | 37066 ft | 477 kts | 121° |
| 2026-04-25 06:18 | 45.83129 | 17.53375 | 37065 ft | 477 kts | 121° |
| 2026-04-25 06:19 | 45.79562 | 17.61402 | 37064 ft | 477 kts | 121° |
| 2026-04-25 06:19 | 45.75991 | 17.69414 | 37059 ft | 477 kts | 121° |
| 2026-04-25 06:20 | 45.72415 | 17.77416 | 37066 ft | 477 kts | 121° |
| 2026-04-25 06:20 | 45.68833 | 17.85409 | 37059 ft | 477 kts | 121° |
| 2026-04-25 06:21 | 45.65249 | 17.93382 | 37064 ft | 477 kts | 121° |
| 2026-04-25 06:21 | 45.61680 | 18.01301 | 37065 ft | 477 kts | 121° |
| 2026-04-25 06:22 | 45.58083 | 18.09257 | 37065 ft | 477 kts | 121° |
| 2026-04-25 06:22 | 45.54481 | 18.17205 | 37062 ft | 477 kts | 121° |
| 2026-04-25 06:23 | 45.50873 | 18.25142 | 37066 ft | 477 kts | 121° |
| 2026-04-25 06:23 | 45.47259 | 18.33070 | 37064 ft | 477 kts | 121° |
| 2026-04-25 06:24 | 45.43644 | 18.40978 | 37064 ft | 476 kts | 121° |
| 2026-04-25 06:24 | 45.40028 | 18.48867 | 37062 ft | 475 kts | 121° |
| 2026-04-25 06:25 | 45.36412 | 18.56733 | 37065 ft | 475 kts | 121° |
| 2026-04-25 06:25 | 45.32795 | 18.64582 | 37062 ft | 474 kts | 121° |
| 2026-04-25 06:26 | 45.29178 | 18.72407 | 37062 ft | 474 kts | 121° |
| 2026-04-25 06:26 | 45.25560 | 18.80215 | 37072 ft | 473 kts | 121° |
| 2026-04-25 06:27 | 45.21938 | 18.88009 | 37077 ft | 473 kts | 121° |
| 2026-04-25 06:27 | 45.18315 | 18.95785 | 37068 ft | 473 kts | 121° |
| 2026-04-25 06:28 | 45.14688 | 19.03553 | 37071 ft | 472 kts | 121° |
| 2026-04-25 06:28 | 45.11138 | 19.11374 | 37068 ft | 472 kts | 118° |
| 2026-04-25 06:29 | 45.07860 | 19.19407 | 37070 ft | 471 kts | 117° |
| 2026-04-25 06:29 | 45.04629 | 19.27471 | 37076 ft | 471 kts | 117° |
| 2026-04-25 06:30 | 45.01365 | 19.35517 | 37072 ft | 472 kts | 118° |
| 2026-04-25 06:30 | 44.98072 | 19.43545 | 37075 ft | 472 kts | 118° |
| 2026-04-25 06:31 | 44.94761 | 19.51568 | 37076 ft | 473 kts | 118° |
| 2026-04-25 06:31 | 44.91440 | 19.59595 | 37075 ft | 474 kts | 118° |
| 2026-04-25 06:32 | 44.88111 | 19.67620 | 37072 ft | 475 kts | 118° |
| 2026-04-25 06:32 | 44.84770 | 19.75654 | 37076 ft | 475 kts | 118° |
| 2026-04-25 06:33 | 44.81420 | 19.83687 | 37076 ft | 475 kts | 118° |
| 2026-04-25 06:33 | 44.78089 | 19.91651 | 37079 ft | 475 kts | 118° |
| 2026-04-25 06:34 | 44.74732 | 19.99653 | 37073 ft | 474 kts | 118° |
| 2026-04-25 06:34 | 44.71356 | 20.07678 | 37082 ft | 473 kts | 118° |
| 2026-04-25 06:35 | 44.68022 | 20.15582 | 37076 ft | 473 kts | 118° |
| 2026-04-25 06:35 | 44.64670 | 20.23507 | 37078 ft | 472 kts | 118° |
| 2026-04-25 06:36 | 44.61317 | 20.31413 | 37075 ft | 471 kts | 118° |
| 2026-04-25 06:36 | 44.57960 | 20.39305 | 37092 ft | 471 kts | 118° |
| 2026-04-25 06:37 | 44.54600 | 20.47181 | 37078 ft | 470 kts | 118° |
| 2026-04-25 06:37 | 44.51239 | 20.55041 | 37085 ft | 470 kts | 118° |
| 2026-04-25 06:38 | 44.47874 | 20.62886 | 37083 ft | 470 kts | 118° |
| 2026-04-25 06:38 | 44.44505 | 20.70721 | 37098 ft | 469 kts | 118° |
| 2026-04-25 06:39 | 44.41136 | 20.78532 | 37081 ft | 469 kts | 118° |
| 2026-04-25 06:39 | 44.37764 | 20.86330 | 37082 ft | 468 kts | 118° |
| 2026-04-25 06:40 | 44.34394 | 20.94103 | 37086 ft | 467 kts | 118° |
| 2026-04-25 06:40 | 44.31020 | 21.01862 | 37087 ft | 467 kts | 118° |
| 2026-04-25 06:41 | 44.27641 | 21.09613 | 37085 ft | 467 kts | 118° |
| 2026-04-25 06:41 | 44.24259 | 21.17350 | 37090 ft | 467 kts | 118° |
| 2026-04-25 06:42 | 44.20874 | 21.25074 | 37089 ft | 467 kts | 118° |
| 2026-04-25 06:42 | 44.17484 | 21.32787 | 37095 ft | 467 kts | 118° |
| 2026-04-25 06:43 | 44.14085 | 21.40501 | 37087 ft | 467 kts | 118° |
| 2026-04-25 06:43 | 44.10701 | 21.48159 | 37089 ft | 468 kts | 118° |
| 2026-04-25 06:44 | 44.07286 | 21.55869 | 37094 ft | 468 kts | 118° |
| 2026-04-25 06:44 | 44.03865 | 21.63569 | 37098 ft | 468 kts | 118° |
| 2026-04-25 06:45 | 44.00412 | 21.71323 | 37072 ft | 469 kts | 118° |
| 2026-04-25 06:45 | 43.96978 | 21.79011 | 37077 ft | 468 kts | 118° |
| 2026-04-25 06:46 | 43.93544 | 21.86680 | 37083 ft | 468 kts | 118° |
| 2026-04-25 06:46 | 43.90103 | 21.94344 | 37079 ft | 468 kts | 118° |
| 2026-04-25 06:47 | 43.86656 | 22.02004 | 37081 ft | 468 kts | 118° |
| 2026-04-25 06:47 | 43.83205 | 22.09649 | 37070 ft | 468 kts | 118° |
| 2026-04-25 06:48 | 43.79750 | 22.17285 | 37067 ft | 468 kts | 118° |
| 2026-04-25 06:48 | 43.76293 | 22.24905 | 37074 ft | 467 kts | 118° |
| 2026-04-25 06:49 | 43.72835 | 22.32511 | 37072 ft | 467 kts | 118° |
| 2026-04-25 06:49 | 43.69399 | 22.40049 | 37077 ft | 466 kts | 118° |
| 2026-04-25 06:50 | 43.65854 | 22.47554 | 37083 ft | 467 kts | 121° |
| 2026-04-25 06:50 | 43.62158 | 22.54938 | 37076 ft | 468 kts | 121° |
| 2026-04-25 06:51 | 43.58453 | 22.62305 | 37076 ft | 467 kts | 121° |
| 2026-04-25 06:51 | 43.54769 | 22.69675 | 37070 ft | 467 kts | 121° |
| 2026-04-25 06:52 | 43.51086 | 22.77055 | 37083 ft | 468 kts | 121° |
| 2026-04-25 06:52 | 43.47995 | 22.83241 | 37074 ft | 468 kts | 121° |
| 2026-04-25 06:53 | 43.44301 | 22.90616 | 37065 ft | 468 kts | 121° |
| 2026-04-25 06:53 | 43.40598 | 22.97986 | 37055 ft | 468 kts | 121° |
| 2026-04-25 06:54 | 43.36920 | 23.05289 | 37065 ft | 468 kts | 121° |
| 2026-04-25 06:54 | 43.33215 | 23.12626 | 37063 ft | 467 kts | 121° |
| 2026-04-25 06:55 | 43.29511 | 23.19945 | 37062 ft | 466 kts | 121° |
| 2026-04-25 06:55 | 43.25808 | 23.27242 | 37077 ft | 466 kts | 121° |
| 2026-04-25 06:56 | 43.22105 | 23.34522 | 37058 ft | 465 kts | 121° |
| 2026-04-25 06:56 | 43.18403 | 23.41783 | 37077 ft | 465 kts | 121° |
| 2026-04-25 06:57 | 43.14697 | 23.49032 | 37060 ft | 464 kts | 121° |
| 2026-04-25 06:57 | 43.10989 | 23.56271 | 37084 ft | 464 kts | 121° |
| 2026-04-25 06:58 | 43.07282 | 23.63486 | 37079 ft | 463 kts | 121° |
| 2026-04-25 06:58 | 43.03571 | 23.70694 | 37074 ft | 463 kts | 121° |
| 2026-04-25 06:59 | 42.99856 | 23.77891 | 37055 ft | 464 kts | 121° |
| 2026-04-25 06:59 | 42.96135 | 23.85083 | 37071 ft | 463 kts | 122° |
| 2026-04-25 07:00 | 42.92412 | 23.92262 | 37061 ft | 464 kts | 122° |
| 2026-04-25 07:00 | 42.88684 | 23.99432 | 37053 ft | 463 kts | 122° |
| 2026-04-25 07:01 | 42.84955 | 24.06587 | 37058 ft | 463 kts | 122° |
| 2026-04-25 07:01 | 42.81226 | 24.13726 | 37067 ft | 463 kts | 122° |
| 2026-04-25 07:02 | 42.77489 | 24.20863 | 37048 ft | 463 kts | 122° |
| 2026-04-25 07:02 | 42.73744 | 24.27997 | 37040 ft | 463 kts | 122° |
| 2026-04-25 07:03 | 42.69999 | 24.35114 | 37061 ft | 462 kts | 122° |
| 2026-04-25 07:03 | 42.66254 | 24.42215 | 37045 ft | 463 kts | 122° |
| 2026-04-25 07:04 | 42.62500 | 24.49319 | 37038 ft | 463 kts | 122° |
| 2026-04-25 07:04 | 42.58745 | 24.56406 | 37045 ft | 462 kts | 122° |
| 2026-04-25 07:05 | 42.54986 | 24.63487 | 37049 ft | 463 kts | 122° |
| 2026-04-25 07:05 | 42.51262 | 24.70598 | 37040 ft | 461 kts | 118° |
| 2026-04-25 07:06 | 42.48490 | 24.78338 | 37044 ft | 456 kts | 110° |
| 2026-04-25 07:06 | 42.45959 | 24.86144 | 37057 ft | 455 kts | 110° |
| 2026-04-25 07:07 | 42.43383 | 24.93983 | 37050 ft | 456 kts | 110° |
| 2026-04-25 07:07 | 42.40771 | 25.01802 | 37064 ft | 456 kts | 111° |
| 2026-04-25 07:08 | 42.38142 | 25.09614 | 37065 ft | 456 kts | 111° |
| 2026-04-25 07:08 | 42.35506 | 25.17420 | 37073 ft | 457 kts | 111° |
| 2026-04-25 07:09 | 42.32859 | 25.25237 | 37068 ft | 458 kts | 111° |
| 2026-04-25 07:09 | 42.30205 | 25.33060 | 37064 ft | 458 kts | 111° |
| 2026-04-25 07:10 | 42.27542 | 25.40881 | 37070 ft | 458 kts | 111° |
| 2026-04-25 07:10 | 42.24873 | 25.48702 | 37068 ft | 459 kts | 111° |
| 2026-04-25 07:11 | 42.22195 | 25.56526 | 37064 ft | 459 kts | 111° |
| 2026-04-25 07:11 | 42.19512 | 25.64341 | 37068 ft | 459 kts | 111° |
| 2026-04-25 07:12 | 42.16820 | 25.72160 | 37067 ft | 459 kts | 111° |
| 2026-04-25 07:12 | 42.12775 | 25.83872 | 37071 ft | 460 kts | 112° |
| 2026-04-25 07:13 | 42.10068 | 25.91680 | 37069 ft | 460 kts | 112° |
| 2026-04-25 07:13 | 42.07353 | 25.99490 | 37066 ft | 461 kts | 112° |
| 2026-04-25 07:14 | 42.04651 | 26.07242 | 37069 ft | 461 kts | 112° |
| 2026-04-25 07:14 | 42.01924 | 26.15041 | 37065 ft | 461 kts | 112° |
| 2026-04-25 07:15 | 41.99191 | 26.22836 | 37066 ft | 461 kts | 112° |
| 2026-04-25 07:15 | 41.96456 | 26.30618 | 37066 ft | 461 kts | 112° |
| 2026-04-25 07:16 | 41.93715 | 26.38396 | 37067 ft | 461 kts | 112° |
| 2026-04-25 07:16 | 41.90967 | 26.46173 | 37061 ft | 461 kts | 113° |
| 2026-04-25 07:17 | 41.88213 | 26.53944 | 37064 ft | 461 kts | 113° |
| 2026-04-25 07:17 | 41.84695 | 26.61151 | 37082 ft | 465 kts | 128° |
| 2026-04-25 07:18 | 41.80510 | 26.67759 | 37061 ft | 465 kts | 128° |
| 2026-04-25 07:18 | 41.76324 | 26.74378 | 37065 ft | 465 kts | 128° |
| 2026-04-25 07:19 | 41.72179 | 26.81023 | 37063 ft | 465 kts | 128° |
| 2026-04-25 07:19 | 41.68043 | 26.87672 | 37070 ft | 464 kts | 128° |
| 2026-04-25 07:20 | 41.63907 | 26.94306 | 37060 ft | 464 kts | 128° |
| 2026-04-25 07:20 | 41.59770 | 27.00924 | 37057 ft | 462 kts | 128° |
| 2026-04-25 07:21 | 41.57740 | 27.04164 | 37036 ft | 447 kts | 128° |
| 2026-04-25 07:21 | 41.55775 | 27.07293 | 37040 ft | 433 kts | 128° |
| 2026-04-25 07:21 | 41.53807 | 27.10257 | 37041 ft | 420 kts | 131° |
| 2026-04-25 07:21 | 41.51809 | 27.13018 | 37032 ft | 407 kts | 133° |
| 2026-04-25 07:22 | 41.49846 | 27.15648 | 37037 ft | 393 kts | 133° |
| 2026-04-25 07:22 | 41.47933 | 27.18201 | 36971 ft | 386 kts | 133° |
| 2026-04-25 07:22 | 41.46046 | 27.20735 | 36566 ft | 384 kts | 133° |
| 2026-04-25 07:22 | 41.44171 | 27.23271 | 36123 ft | 384 kts | 133° |
| 2026-04-25 07:23 | 41.42287 | 27.25832 | 35417 ft | 392 kts | 133° |
| 2026-04-25 07:23 | 41.40346 | 27.28477 | 34435 ft | 407 kts | 133° |
| 2026-04-25 07:23 | 41.38327 | 27.31229 | 33274 ft | 424 kts | 133° |
| 2026-04-25 07:23 | 41.36224 | 27.34092 | 31991 ft | 441 kts | 133° |
| 2026-04-25 07:24 | 41.34042 | 27.37059 | 30774 ft | 455 kts | 133° |
| 2026-04-25 07:24 | 41.31800 | 27.40103 | 29572 ft | 465 kts | 133° |
| 2026-04-25 07:24 | 41.29517 | 27.43200 | 28350 ft | 472 kts | 133° |
| 2026-04-25 07:24 | 41.27224 | 27.46306 | 27718 ft | 466 kts | 133° |
| 2026-04-25 07:25 | 41.24995 | 27.49322 | 27595 ft | 449 kts | 133° |
| 2026-04-25 07:25 | 41.23121 | 27.52455 | 27446 ft | 431 kts | 117° |
| 2026-04-25 07:25 | 41.21982 | 27.56047 | 27326 ft | 415 kts | 109° |
| 2026-04-25 07:25 | 41.20992 | 27.59614 | 26895 ft | 410 kts | 109° |
| 2026-04-25 07:26 | 41.20005 | 27.63165 | 26288 ft | 410 kts | 109° |
| 2026-04-25 07:26 | 41.19008 | 27.66701 | 25730 ft | 408 kts | 109° |
| 2026-04-25 07:26 | 41.18003 | 27.70211 | 25256 ft | 405 kts | 110° |
| 2026-04-25 07:26 | 41.16999 | 27.73684 | 24803 ft | 401 kts | 110° |
| 2026-04-25 07:27 | 41.16000 | 27.77123 | 24338 ft | 398 kts | 110° |
| 2026-04-25 07:27 | 41.15006 | 27.80537 | 23880 ft | 395 kts | 110° |
| 2026-04-25 07:27 | 41.14018 | 27.83925 | 23370 ft | 393 kts | 110° |
| 2026-04-25 07:27 | 41.13036 | 27.87292 | 22854 ft | 390 kts | 110° |
| 2026-04-25 07:28 | 41.12059 | 27.90633 | 22367 ft | 386 kts | 110° |
| 2026-04-25 07:28 | 41.11092 | 27.93936 | 21879 ft | 383 kts | 110° |
| 2026-04-25 07:28 | 41.10130 | 27.97215 | 21395 ft | 380 kts | 110° |
| 2026-04-25 07:28 | 41.09175 | 28.00472 | 20917 ft | 378 kts | 110° |
| 2026-04-25 07:29 | 41.08227 | 28.03700 | 20434 ft | 375 kts | 111° |
| 2026-04-25 07:29 | 41.07283 | 28.06913 | 19979 ft | 372 kts | 111° |
| 2026-04-25 07:29 | 41.06342 | 28.10108 | 19494 ft | 371 kts | 111° |
| 2026-04-25 07:29 | 41.05406 | 28.13274 | 19082 ft | 367 kts | 112° |
| 2026-04-25 07:30 | 41.04104 | 28.16143 | 18661 ft | 364 kts | 133° |
| 2026-04-25 07:30 | 41.02124 | 28.18187 | 18309 ft | 361 kts | 150° |
| 2026-04-25 07:30 | 40.99788 | 28.19332 | 17899 ft | 358 kts | 166° |
| 2026-04-25 07:30 | 40.97397 | 28.19974 | 17509 ft | 354 kts | 168° |
| 2026-04-25 07:31 | 40.94988 | 28.20560 | 17109 ft | 350 kts | 169° |
| 2026-04-25 07:31 | 40.92609 | 28.21138 | 16737 ft | 346 kts | 169° |
| 2026-04-25 07:31 | 40.90257 | 28.21723 | 16369 ft | 342 kts | 168° |
| 2026-04-25 07:31 | 40.87931 | 28.22315 | 16010 ft | 339 kts | 168° |
| 2026-04-25 07:32 | 40.85631 | 28.22909 | 15657 ft | 335 kts | 168° |
| 2026-04-25 07:32 | 40.83351 | 28.23502 | 15307 ft | 332 kts | 168° |
| 2026-04-25 07:32 | 40.81093 | 28.24089 | 14948 ft | 329 kts | 168° |
| 2026-04-25 07:32 | 40.78854 | 28.24675 | 14620 ft | 327 kts | 167° |
| 2026-04-25 07:33 | 40.76727 | 28.25665 | 14271 ft | 324 kts | 152° |
| 2026-04-25 07:33 | 40.74763 | 28.27083 | 13941 ft | 321 kts | 151° |
| 2026-04-25 07:33 | 40.72800 | 28.28475 | 13574 ft | 319 kts | 152° |
| 2026-04-25 07:33 | 40.70839 | 28.29831 | 13212 ft | 317 kts | 152° |
| 2026-04-25 07:34 | 40.69084 | 28.31528 | 12836 ft | 314 kts | 129° |
| 2026-04-25 07:34 | 40.68026 | 28.33989 | 12557 ft | 308 kts | 108° |
| 2026-04-25 07:34 | 40.67693 | 28.36743 | 12228 ft | 304 kts | 91° |
| 2026-04-25 07:34 | 40.67650 | 28.39515 | 11907 ft | 302 kts | 90° |
| 2026-04-25 07:35 | 40.67617 | 28.42268 | 11581 ft | 300 kts | 91° |
| 2026-04-25 07:35 | 40.67572 | 28.45003 | 11267 ft | 298 kts | 91° |
| 2026-04-25 07:35 | 40.67518 | 28.47724 | 10885 ft | 298 kts | 91° |
| 2026-04-25 07:35 | 40.67461 | 28.50449 | 10554 ft | 297 kts | 91° |
| 2026-04-25 07:36 | 40.67401 | 28.53156 | 10233 ft | 295 kts | 91° |
| 2026-04-25 07:36 | 40.67341 | 28.55845 | 9921 ft | 293 kts | 91° |
| 2026-04-25 07:36 | 40.67280 | 28.58467 | 9909 ft | 279 kts | 91° |
| 2026-04-25 07:36 | 40.67216 | 28.61035 | 9340 ft | 286 kts | 94° |
| 2026-04-25 07:37 | 40.66679 | 28.63515 | 9119 ft | 282 kts | 120° |
| 2026-04-25 07:37 | 40.65398 | 28.65397 | 9006 ft | 274 kts | 143° |
| 2026-04-25 07:37 | 40.63775 | 28.66620 | 8970 ft | 263 kts | 151° |
| 2026-04-25 07:37 | 40.62166 | 28.67713 | 8961 ft | 259 kts | 151° |
| 2026-04-25 07:38 | 40.60565 | 28.68805 | 8967 ft | 260 kts | 151° |
| 2026-04-25 07:38 | 40.58970 | 28.69990 | 8564 ft | 271 kts | 140° |
| 2026-04-25 07:38 | 40.57645 | 28.71698 | 8381 ft | 265 kts | 133° |
| 2026-04-25 07:38 | 40.56378 | 28.73408 | 8251 ft | 257 kts | 133° |
| 2026-04-25 07:39 | 40.55132 | 28.75053 | 8135 ft | 251 kts | 134° |
| 2026-04-25 07:39 | 40.53986 | 28.76761 | 7939 ft | 248 kts | 117° |
| 2026-04-25 07:39 | 40.53716 | 28.78902 | 7864 ft | 234 kts | 79° |
| 2026-04-25 07:39 | 40.54308 | 28.80832 | 7650 ft | 226 kts | 58° |
| 2026-04-25 07:40 | 40.55344 | 28.82339 | 7395 ft | 220 kts | 40° |
| 2026-04-25 07:40 | 40.56157 | 28.83119 | 7218 ft | 217 kts | 36° |
| 2026-04-25 07:40 | 40.57400 | 28.84208 | 6943 ft | 212 kts | 35° |
| 2026-04-25 07:40 | 40.58624 | 28.85263 | 6658 ft | 208 kts | 35° |
| 2026-04-25 07:41 | 40.59821 | 28.86298 | 6376 ft | 204 kts | 35° |
| 2026-04-25 07:41 | 40.60993 | 28.87317 | 6084 ft | 200 kts | 35° |
| 2026-04-25 07:41 | 40.62145 | 28.88323 | 5797 ft | 197 kts | 36° |
| 2026-04-25 07:41 | 40.63276 | 28.89315 | 5517 ft | 194 kts | 36° |
| 2026-04-25 07:42 | 40.64389 | 28.90294 | 5232 ft | 191 kts | 36° |
| 2026-04-25 07:42 | 40.65487 | 28.91261 | 4962 ft | 188 kts | 36° |
| 2026-04-25 07:42 | 40.66567 | 28.92214 | 4709 ft | 185 kts | 36° |
| 2026-04-25 07:42 | 40.67636 | 28.93158 | 4448 ft | 184 kts | 36° |
| 2026-04-25 07:43 | 40.68695 | 28.94094 | 4201 ft | 183 kts | 36° |
| 2026-04-25 07:43 | 40.69750 | 28.95029 | 3940 ft | 182 kts | 36° |
| 2026-04-25 07:43 | 40.70799 | 28.95958 | 3697 ft | 181 kts | 37° |
| 2026-04-25 07:43 | 40.71840 | 28.96880 | 3450 ft | 180 kts | 37° |
| 2026-04-25 07:44 | 40.72879 | 28.97802 | 3199 ft | 180 kts | 37° |
| 2026-04-25 07:44 | 40.73917 | 28.98723 | 3019 ft | 179 kts | 37° |
| 2026-04-25 07:44 | 40.74946 | 28.99637 | 2979 ft | 180 kts | 37° |
| 2026-04-25 07:44 | 40.75990 | 29.00563 | 2978 ft | 182 kts | 36° |
| 2026-04-25 07:45 | 40.77027 | 29.01535 | 2960 ft | 184 kts | 46° |
| 2026-04-25 07:45 | 40.77733 | 29.02909 | 2974 ft | 181 kts | 60° |
| 2026-04-25 07:45 | 40.78400 | 29.04322 | 2960 ft | 182 kts | 59° |
| 2026-04-25 07:45 | 40.79077 | 29.05728 | 2966 ft | 181 kts | 59° |
| 2026-04-25 07:46 | 40.79755 | 29.07134 | 2962 ft | 182 kts | 59° |
| 2026-04-25 07:46 | 40.80420 | 29.08545 | 2956 ft | 179 kts | 61° |
| 2026-04-25 07:46 | 40.80995 | 29.09939 | 2944 ft | 168 kts | 64° |
| 2026-04-25 07:46 | 40.81515 | 29.11303 | 2964 ft | 164 kts | 65° |
| 2026-04-25 07:47 | 40.82001 | 29.12613 | 2978 ft | 153 kts | 65° |
| 2026-04-25 07:47 | 40.82442 | 29.13813 | 2991 ft | 142 kts | 65° |
| 2026-04-25 07:47 | 40.82867 | 29.14973 | 2969 ft | 138 kts | 66° |
| 2026-04-25 07:47 | 40.83284 | 29.16111 | 2953 ft | 138 kts | 66° |
| 2026-04-25 07:48 | 40.83701 | 29.17246 | 2808 ft | 139 kts | 65° |
| 2026-04-25 07:48 | 40.84120 | 29.18390 | 2590 ft | 133 kts | 66° |
| 2026-04-25 07:48 | 40.84519 | 29.19477 | 2390 ft | 130 kts | 66° |
| 2026-04-25 07:48 | 40.84908 | 29.20536 | 2197 ft | 130 kts | 65° |
| 2026-04-25 07:49 | 40.85309 | 29.21625 | 2014 ft | 134 kts | 65° |
| 2026-04-25 07:49 | 40.85722 | 29.22742 | 1798 ft | 136 kts | 65° |
| 2026-04-25 07:49 | 40.86128 | 29.23856 | 1573 ft | 134 kts | 65° |
| 2026-04-25 07:49 | 40.86538 | 29.24970 | 1340 ft | 135 kts | 65° |
| 2026-04-25 07:50 | 40.86946 | 29.26082 | 1122 ft | 134 kts | 65° |
| 2026-04-25 07:50 | 40.87351 | 29.27187 | 893 ft | 133 kts | 65° |
| 2026-04-25 07:50 | 40.87763 | 29.28302 | 686 ft | 136 kts | 65° |
| 2026-04-25 07:50 | 40.88174 | 29.29420 | 469 ft | 135 kts | 66° |
| 2026-04-25 07:51 | 40.88580 | 29.30521 | 297 ft | 130 kts | 65° |
| 2026-04-25 07:51 | 40.88930 | 29.31467 | 297 ft | 95 kts | 64° |
| 2026-04-25 07:51 | 40.89153 | 29.32069 | 301 ft | 51 kts | 64° |
| 2026-04-25 07:51 | 40.89263 | 29.32311 | 301 ft | 18 kts | 49° |
| 2026-04-25 07:52 | 40.89364 | 29.32426 | 302 ft | 21 kts | 34° |
| 2026-04-25 07:52 | 40.89468 | 29.32503 | 301 ft | 11 kts | 358° |
| 2026-04-25 07:52 | 40.89495 | 29.32422 | 302 ft | 11 kts | 273° |
| 2026-04-25 07:52 | 40.89546 | 29.32357 | 303 ft | 11 kts | 344° |
| 2026-04-25 07:53 | 40.89625 | 29.32326 | 302 ft | 14 kts | 335° |
| 2026-04-25 07:53 | 40.89727 | 29.32261 | 304 ft | 17 kts | 334° |
| 2026-04-25 07:53 | 40.89829 | 29.32196 | 307 ft | 16 kts | 334° |
| 2026-04-25 07:53 | 40.89927 | 29.32133 | 310 ft | 15 kts | 334° |
| 2026-04-25 07:54 | 40.90023 | 29.32071 | 310 ft | 15 kts | 334° |
| 2026-04-25 07:54 | 40.90105 | 29.32099 | 310 ft | 14 kts | 63° |
| 2026-04-25 07:54 | 40.90133 | 29.32180 | 310 ft | 7 kts | 66° |
| 2026-04-25 07:54 | 40.90173 | 29.32200 | 310 ft | 7 kts | 345° |
| 2026-04-25 07:55 | 40.90213 | 29.32176 | 310 ft | 6 kts | 331° |
| 2026-04-25 07:55 | 40.90251 | 29.32150 | 313 ft | 6 kts | 339° |
| 2026-04-25 07:55 | 40.90303 | 29.32176 | 313 ft | 11 kts | 47° |
| 2026-04-25 07:55 | 40.90347 | 29.32267 | 312 ft | 13 kts | 62° |
| 2026-04-25 07:56 | 40.90388 | 29.32374 | 311 ft | 13 kts | 63° |
| 2026-04-25 07:56 | 40.90440 | 29.32472 | 311 ft | 13 kts | 31° |
| 2026-04-25 07:56 | 40.90530 | 29.32454 | 310 ft | 15 kts | 334° |
| 2026-04-25 07:56 | 40.90599 | 29.32392 | 310 ft | 11 kts | 301° |
| 2026-04-25 07:57 | 40.90654 | 29.32314 | 310 ft | 13 kts | 334° |
| 2026-04-25 07:57 | 40.90726 | 29.32262 | 310 ft | 12 kts | 314° |
| 2026-04-25 07:57 | 40.90715 | 29.32158 | 309 ft | 13 kts | 244° |
| 2026-04-25 07:57 | 40.90674 | 29.32046 | 310 ft | 14 kts | 244° |
| 2026-04-25 07:58 | 40.90634 | 29.31938 | 310 ft | 13 kts | 244° |
| 2026-04-25 07:58 | 40.90600 | 29.31846 | 310 ft | 9 kts | 244° |
| 2026-04-25 07:58 | 40.90580 | 29.31799 | 310 ft | 4 kts | 221° |
| 2026-04-25 07:58 | 40.90554 | 29.31802 | 310 ft | 4 kts | 159° |
| 2026-04-25 07:59 | 40.90528 | 29.31818 | 310 ft | 4 kts | 153° |
| 2026-04-25 07:59 | 40.90513 | 29.31828 | 310 ft | 1 kts | 154° |
| 2026-04-25 07:59 | 40.90509 | 29.31830 | 310 ft | 0 kts | 154° |